This is the latest recevied weather packets stored in our database for station/object DB2AG-13. If no packets are shown the sender has not sent any weather packets the latest 10 day(s).
| Time | Temp. | Humidity | Pressure | Rain* | Wind** | Luminosity | Snow |
|---|---|---|---|---|---|---|---|
| 1787400569 | 20° C | 47% | 1017.9 hPa | - | - | - | - |
| 1787400035 | 20.56° C | 48% | 1017.8 hPa | - | - | - | - |
| 1787399499 | 20° C | 50% | 1017.8 hPa | - | - | - | - |
| 1787398967 | 19.44° C | 52% | 1017.8 hPa | - | - | - | - |
| 1787398434 | 19.44° C | 52% | 1017.7 hPa | - | - | - | - |
| 1787397902 | 18.89° C | 55% | 1017.6 hPa | - | - | - | - |
| 1787397372 | 18.33° C | 56% | 1017.5 hPa | - | - | - | - |
| 1787396840 | 18.33° C | 55% | 1017.5 hPa | - | - | - | - |
| 1787396308 | 18.33° C | 56% | 1017.6 hPa | - | - | - | - |
| 1787395774 | 18.89° C | 56% | 1017.5 hPa | - | - | - | - |
| 1787395238 | 19.44° C | 56% | 1017.4 hPa | - | - | - | - |
| 1787394707 | 20.56° C | 55% | 1017.4 hPa | - | - | - | - |
| 1787393643 | 18.89° C | 66% | 1017.4 hPa | - | - | - | - |
| 1787392573 | 15.56° C | 70% | 1017.3 hPa | - | - | - | - |
| 1787392033 | 15° C | 70% | 1017.2 hPa | - | - | - | - |
| 1787391497 | 15° C | 71% | 1017.3 hPa | - | - | - | - |
| 1787390955 | 15° C | 67% | 1017.3 hPa | - | - | - | - |
| 1787390411 | 16.11° C | 63% | 1017 hPa | - | - | - | - |
| 1787389866 | 18.33° C | 58% | 1016.9 hPa | - | - | - | - |
| 1787388783 | 21.11° C | 51% | 1016.5 hPa | - | - | - | - |
| 1787388245 | 22.22° C | 51% | 1016.5 hPa | - | - | - | - |
| 1787387155 | 18.89° C | 60% | 1016.3 hPa | - | - | - | - |
| 1787386610 | 17.78° C | 60% | 1016.3 hPa | - | - | - | - |
| 1787386070 | 17.78° C | 63% | 1016.2 hPa | - | - | - | - |
| 1787385523 | 16.67° C | 66% | 1016.1 hPa | - | - | - | - |
* Rain since midnight (hover to see other rain measurements)
** Current wind speed in m/s (hover to see current wind gust speed)